sensor_id;sensor_type;location;lat;lon;timestamp;P1;durP1;ratioP1;P2;durP2;ratioP2
17886;SDS011;9069;52.044;7.472;2023-07-31T00:01:33;1.60;;;0.90;;
17886;SDS011;9069;52.044;7.472;2023-07-31T00:04:00;0.80;;;0.80;;
17886;SDS011;9069;52.044;7.472;2023-07-31T00:06:27;1.48;;;0.98;;
17886;SDS011;9069;52.044;7.472;2023-07-31T00:08:54;1.13;;;0.68;;
17886;SDS011;9069;52.044;7.472;2023-07-31T00:11:21;1.13;;;0.63;;
17886;SDS011;9069;52.044;7.472;2023-07-31T00:13:47;0.60;;;0.60;;
17886;SDS011;9069;52.044;7.472;2023-07-31T00:16:14;0.80;;;0.60;;
17886;SDS011;9069;52.044;7.472;2023-07-31T00:18:41;1.30;;;0.80;;
17886;SDS011;9069;52.044;7.472;2023-07-31T00:21:08;1.35;;;0.80;;
17886;SDS011;9069;52.044;7.472;2023-07-31T00:23:34;1.63;;;0.80;;
17886;SDS011;9069;52.044;7.472;2023-07-31T00:26:01;1.50;;;0.85;;
17886;SDS011;9069;52.044;7.472;2023-07-31T00:28:28;1.60;;;0.60;;
17886;SDS011;9069;52.044;7.472;2023-07-31T00:30:55;1.80;;;0.98;;
17886;SDS011;9069;52.044;7.472;2023-07-31T00:33:24;1.85;;;0.60;;
17886;SDS011;9069;52.044;7.472;2023-07-31T00:35:51;3.80;;;0.85;;
17886;SDS011;9069;52.044;7.472;2023-07-31T00:38:18;1.17;;;0.80;;
17886;SDS011;9069;52.044;7.472;2023-07-31T00:40:45;0.75;;;0.68;;
17886;SDS011;9069;52.044;7.472;2023-07-31T00:43:11;1.85;;;1.20;;
17886;SDS011;9069;52.044;7.472;2023-07-31T00:45:39;1.00;;;0.85;;
17886;SDS011;9069;52.044;7.472;2023-07-31T00:48:07;0.93;;;0.82;;
17886;SDS011;9069;52.044;7.472;2023-07-31T00:50:34;2.22;;;0.73;;
17886;SDS011;9069;52.044;7.472;2023-07-31T00:53:02;1.35;;;0.90;;
17886;SDS011;9069;52.044;7.472;2023-07-31T00:55:29;0.90;;;0.90;;
17886;SDS011;9069;52.044;7.472;2023-07-31T00:57:56;1.05;;;0.90;;
17886;SDS011;9069;52.044;7.472;2023-07-31T01:00:23;0.90;;;0.85;;
17886;SDS011;9069;52.044;7.472;2023-07-31T01:02:50;0.90;;;0.77;;
17886;SDS011;9069;52.044;7.472;2023-07-31T01:05:24;1.65;;;0.80;;
17886;SDS011;9069;52.044;7.472;2023-07-31T01:08:09;3.03;;;0.55;;
17886;SDS011;9069;52.044;7.472;2023-07-31T01:10:55;1.95;;;0.85;;
17886;SDS011;9069;52.044;7.472;2023-07-31T01:13:26;1.23;;;0.63;;
17886;SDS011;9069;52.044;7.472;2023-07-31T01:15:54;0.60;;;0.60;;
17886;SDS011;9069;52.044;7.472;2023-07-31T01:18:20;0.73;;;0.70;;
17886;SDS011;9069;52.044;7.472;2023-07-31T01:20:49;1.45;;;1.15;;
17886;SDS011;9069;52.044;7.472;2023-07-31T01:26:11;1.30;;;0.77;;
17886;SDS011;9069;52.044;7.472;2023-07-31T01:31:22;0.50;;;0.40;;
17886;SDS011;9069;52.044;7.472;2023-07-31T01:33:52;2.45;;;0.70;;
17886;SDS011;9069;52.044;7.472;2023-07-31T01:36:21;1.02;;;0.70;;
17886;SDS011;9069;52.044;7.472;2023-07-31T01:38:49;1.98;;;0.80;;
17886;SDS011;9069;52.044;7.472;2023-07-31T01:41:17;1.50;;;0.80;;
17886;SDS011;9069;52.044;7.472;2023-07-31T01:43:47;0.90;;;0.60;;
17886;SDS011;9069;52.044;7.472;2023-07-31T01:46:14;1.35;;;0.60;;
17886;SDS011;9069;52.044;7.472;2023-07-31T01:48:41;0.77;;;0.40;;
17886;SDS011;9069;52.044;7.472;2023-07-31T01:51:08;1.05;;;0.63;;
17886;SDS011;9069;52.044;7.472;2023-07-31T01:53:35;0.43;;;0.43;;
17886;SDS011;9069;52.044;7.472;2023-07-31T01:56:02;0.50;;;0.50;;
17886;SDS011;9069;52.044;7.472;2023-07-31T01:58:29;0.40;;;0.40;;
17886;SDS011;9069;52.044;7.472;2023-07-31T02:00:56;0.73;;;0.40;;
17886;SDS011;9069;52.044;7.472;2023-07-31T02:03:23;1.30;;;0.60;;
17886;SDS011;9069;52.044;7.472;2023-07-31T02:05:51;0.82;;;0.43;;
17886;SDS011;9069;52.044;7.472;2023-07-31T02:08:20;0.85;;;0.38;;
17886;SDS011;9069;52.044;7.472;2023-07-31T02:10:47;1.52;;;0.60;;
17886;SDS011;9069;52.044;7.472;2023-07-31T02:13:14;0.60;;;0.40;;
17886;SDS011;9069;52.044;7.472;2023-07-31T02:15:41;0.63;;;0.40;;
17886;SDS011;9069;52.044;7.472;2023-07-31T02:18:08;0.55;;;0.30;;
17886;SDS011;9069;52.044;7.472;2023-07-31T02:20:35;0.45;;;0.35;;
17886;SDS011;9069;52.044;7.472;2023-07-31T02:23:02;0.30;;;0.30;;
17886;SDS011;9069;52.044;7.472;2023-07-31T02:25:29;1.98;;;0.63;;
17886;SDS011;9069;52.044;7.472;2023-07-31T02:27:56;1.35;;;0.70;;
17886;SDS011;9069;52.044;7.472;2023-07-31T02:30:22;2.53;;;1.40;;
17886;SDS011;9069;52.044;7.472;2023-07-31T02:32:49;3.88;;;1.70;;
17886;SDS011;9069;52.044;7.472;2023-07-31T02:35:16;3.78;;;1.88;;
17886;SDS011;9069;52.044;7.472;2023-07-31T02:37:45;3.25;;;1.85;;
17886;SDS011;9069;52.044;7.472;2023-07-31T02:40:12;4.88;;;3.28;;
17886;SDS011;9069;52.044;7.472;2023-07-31T02:42:39;8.80;;;3.72;;
17886;SDS011;9069;52.044;7.472;2023-07-31T02:45:06;11.65;;;4.50;;
17886;SDS011;9069;52.044;7.472;2023-07-31T02:47:33;10.50;;;4.47;;
17886;SDS011;9069;52.044;7.472;2023-07-31T02:50:01;10.70;;;4.85;;
17886;SDS011;9069;52.044;7.472;2023-07-31T02:52:28;11.00;;;4.60;;
17886;SDS011;9069;52.044;7.472;2023-07-31T02:54:56;12.93;;;5.22;;
17886;SDS011;9069;52.044;7.472;2023-07-31T02:57:23;16.50;;;5.13;;
17886;SDS011;9069;52.044;7.472;2023-07-31T02:59:50;9.18;;;4.68;;
17886;SDS011;9069;52.044;7.472;2023-07-31T03:02:17;11.82;;;5.18;;
17886;SDS011;9069;52.044;7.472;2023-07-31T03:04:44;12.23;;;5.22;;
17886;SDS011;9069;52.044;7.472;2023-07-31T03:07:10;10.65;;;5.38;;
17886;SDS011;9069;52.044;7.472;2023-07-31T03:09:37;11.80;;;4.80;;
17886;SDS011;9069;52.044;7.472;2023-07-31T03:12:04;10.63;;;4.28;;
17886;SDS011;9069;52.044;7.472;2023-07-31T03:14:31;9.73;;;4.57;;
17886;SDS011;9069;52.044;7.472;2023-07-31T03:16:58;11.35;;;4.53;;
17886;SDS011;9069;52.044;7.472;2023-07-31T03:19:25;9.55;;;4.07;;
17886;SDS011;9069;52.044;7.472;2023-07-31T03:21:52;9.23;;;5.30;;
17886;SDS011;9069;52.044;7.472;2023-07-31T03:24:19;10.45;;;4.18;;
17886;SDS011;9069;52.044;7.472;2023-07-31T03:26:45;9.40;;;4.07;;
17886;SDS011;9069;52.044;7.472;2023-07-31T03:29:12;11.27;;;4.30;;
17886;SDS011;9069;52.044;7.472;2023-07-31T03:31:39;9.10;;;4.22;;
17886;SDS011;9069;52.044;7.472;2023-07-31T03:34:06;11.77;;;3.60;;
17886;SDS011;9069;52.044;7.472;2023-07-31T03:36:32;9.15;;;4.20;;
17886;SDS011;9069;52.044;7.472;2023-07-31T03:38:59;7.55;;;3.50;;
17886;SDS011;9069;52.044;7.472;2023-07-31T03:41:26;12.05;;;3.88;;
17886;SDS011;9069;52.044;7.472;2023-07-31T03:43:53;12.18;;;3.85;;
17886;SDS011;9069;52.044;7.472;2023-07-31T03:46:23;10.15;;;3.67;;
17886;SDS011;9069;52.044;7.472;2023-07-31T03:48:50;7.45;;;3.85;;
17886;SDS011;9069;52.044;7.472;2023-07-31T03:51:17;9.05;;;3.60;;
17886;SDS011;9069;52.044;7.472;2023-07-31T03:53:44;7.55;;;3.17;;
17886;SDS011;9069;52.044;7.472;2023-07-31T03:56:11;8.57;;;3.40;;
17886;SDS011;9069;52.044;7.472;2023-07-31T03:58:38;11.90;;;3.60;;
17886;SDS011;9069;52.044;7.472;2023-07-31T04:01:05;11.50;;;4.20;;
17886;SDS011;9069;52.044;7.472;2023-07-31T04:03:32;7.32;;;3.95;;
17886;SDS011;9069;52.044;7.472;2023-07-31T04:05:59;9.88;;;3.92;;
17886;SDS011;9069;52.044;7.472;2023-07-31T04:08:25;8.05;;;3.58;;
17886;SDS011;9069;52.044;7.472;2023-07-31T04:10:52;10.88;;;4.10;;
17886;SDS011;9069;52.044;7.472;2023-07-31T04:13:19;10.60;;;3.75;;
17886;SDS011;9069;52.044;7.472;2023-07-31T04:15:49;10.35;;;3.95;;
17886;SDS011;9069;52.044;7.472;2023-07-31T04:18:17;14.32;;;4.00;;
17886;SDS011;9069;52.044;7.472;2023-07-31T04:20:44;9.90;;;4.25;;
17886;SDS011;9069;52.044;7.472;2023-07-31T04:23:11;11.68;;;4.43;;
17886;SDS011;9069;52.044;7.472;2023-07-31T04:25:37;11.45;;;3.97;;
17886;SDS011;9069;52.044;7.472;2023-07-31T04:28:04;8.65;;;3.72;;
17886;SDS011;9069;52.044;7.472;2023-07-31T04:30:31;9.00;;;4.45;;
17886;SDS011;9069;52.044;7.472;2023-07-31T04:32:58;11.88;;;3.90;;
17886;SDS011;9069;52.044;7.472;2023-07-31T04:35:25;11.00;;;4.45;;
17886;SDS011;9069;52.044;7.472;2023-07-31T04:37:52;15.80;;;4.68;;
17886;SDS011;9069;52.044;7.472;2023-07-31T04:40:19;11.15;;;4.22;;
17886;SDS011;9069;52.044;7.472;2023-07-31T04:42:47;9.13;;;4.03;;
17886;SDS011;9069;52.044;7.472;2023-07-31T04:45:13;9.65;;;3.60;;
17886;SDS011;9069;52.044;7.472;2023-07-31T04:47:40;15.05;;;4.10;;
17886;SDS011;9069;52.044;7.472;2023-07-31T04:50:07;9.50;;;3.60;;
17886;SDS011;9069;52.044;7.472;2023-07-31T04:52:34;10.98;;;4.10;;
17886;SDS011;9069;52.044;7.472;2023-07-31T04:55:01;9.23;;;3.80;;
17886;SDS011;9069;52.044;7.472;2023-07-31T04:57:29;6.55;;;3.47;;
17886;SDS011;9069;52.044;7.472;2023-07-31T04:59:55;6.70;;;3.47;;
17886;SDS011;9069;52.044;7.472;2023-07-31T05:02:22;9.30;;;3.30;;
17886;SDS011;9069;52.044;7.472;2023-07-31T05:04:49;6.90;;;3.50;;
17886;SDS011;9069;52.044;7.472;2023-07-31T05:07:15;12.93;;;3.80;;
17886;SDS011;9069;52.044;7.472;2023-07-31T05:09:43;8.68;;;3.25;;
17886;SDS011;9069;52.044;7.472;2023-07-31T05:12:10;11.45;;;3.97;;
17886;SDS011;9069;52.044;7.472;2023-07-31T05:14:36;11.27;;;3.85;;
17886;SDS011;9069;52.044;7.472;2023-07-31T05:17:03;13.77;;;4.07;;
17886;SDS011;9069;52.044;7.472;2023-07-31T05:19:30;9.30;;;3.97;;
17886;SDS011;9069;52.044;7.472;2023-07-31T05:21:57;9.13;;;4.20;;
17886;SDS011;9069;52.044;7.472;2023-07-31T05:24:24;11.85;;;4.28;;
17886;SDS011;9069;52.044;7.472;2023-07-31T05:26:50;8.75;;;3.65;;
17886;SDS011;9069;52.044;7.472;2023-07-31T05:29:17;8.48;;;3.33;;
17886;SDS011;9069;52.044;7.472;2023-07-31T05:31:44;8.52;;;3.40;;
17886;SDS011;9069;52.044;7.472;2023-07-31T05:34:11;13.00;;;4.03;;
17886;SDS011;9069;52.044;7.472;2023-07-31T05:36:37;13.75;;;3.70;;
17886;SDS011;9069;52.044;7.472;2023-07-31T05:39:04;16.77;;;4.38;;
17886;SDS011;9069;52.044;7.472;2023-07-31T05:41:35;11.18;;;3.70;;
17886;SDS011;9069;52.044;7.472;2023-07-31T05:44:02;10.88;;;3.17;;
17886;SDS011;9069;52.044;7.472;2023-07-31T05:46:29;7.90;;;3.70;;
17886;SDS011;9069;52.044;7.472;2023-07-31T05:48:57;9.25;;;3.38;;
17886;SDS011;9069;52.044;7.472;2023-07-31T05:51:27;8.32;;;4.05;;
17886;SDS011;9069;52.044;7.472;2023-07-31T05:53:54;14.35;;;4.18;;
17886;SDS011;9069;52.044;7.472;2023-07-31T05:56:21;10.55;;;3.47;;
17886;SDS011;9069;52.044;7.472;2023-07-31T05:58:47;11.82;;;3.28;;
17886;SDS011;9069;52.044;7.472;2023-07-31T06:01:15;14.50;;;4.40;;
17886;SDS011;9069;52.044;7.472;2023-07-31T06:03:43;10.70;;;3.25;;
17886;SDS011;9069;52.044;7.472;2023-07-31T06:06:10;10.50;;;3.22;;
17886;SDS011;9069;52.044;7.472;2023-07-31T06:08:37;6.18;;;3.30;;
17886;SDS011;9069;52.044;7.472;2023-07-31T06:11:04;10.13;;;3.10;;
17886;SDS011;9069;52.044;7.472;2023-07-31T06:13:31;12.88;;;3.78;;
17886;SDS011;9069;52.044;7.472;2023-07-31T06:15:58;7.60;;;3.50;;
17886;SDS011;9069;52.044;7.472;2023-07-31T06:18:25;11.65;;;3.75;;
17886;SDS011;9069;52.044;7.472;2023-07-31T06:20:52;11.07;;;3.45;;
17886;SDS011;9069;52.044;7.472;2023-07-31T06:23:20;9.52;;;3.78;;
17886;SDS011;9069;52.044;7.472;2023-07-31T06:25:47;12.13;;;3.25;;
17886;SDS011;9069;52.044;7.472;2023-07-31T06:28:14;9.98;;;3.55;;
17886;SDS011;9069;52.044;7.472;2023-07-31T06:30:40;11.80;;;3.90;;
17886;SDS011;9069;52.044;7.472;2023-07-31T06:33:07;6.57;;;3.42;;
17886;SDS011;9069;52.044;7.472;2023-07-31T06:35:35;12.10;;;3.40;;
17886;SDS011;9069;52.044;7.472;2023-07-31T06:38:02;9.48;;;3.58;;
17886;SDS011;9069;52.044;7.472;2023-07-31T06:40:29;10.52;;;3.50;;
17886;SDS011;9069;52.044;7.472;2023-07-31T06:42:56;9.45;;;3.40;;
17886;SDS011;9069;52.044;7.472;2023-07-31T06:45:23;7.80;;;3.15;;
17886;SDS011;9069;52.044;7.472;2023-07-31T06:47:50;11.52;;;3.13;;
17886;SDS011;9069;52.044;7.472;2023-07-31T06:50:16;8.27;;;3.22;;
17886;SDS011;9069;52.044;7.472;2023-07-31T06:52:43;7.18;;;3.28;;
17886;SDS011;9069;52.044;7.472;2023-07-31T06:55:17;13.38;;;3.40;;
17886;SDS011;9069;52.044;7.472;2023-07-31T06:57:45;7.25;;;3.47;;
17886;SDS011;9069;52.044;7.472;2023-07-31T07:00:13;7.68;;;3.00;;
17886;SDS011;9069;52.044;7.472;2023-07-31T07:02:40;10.38;;;3.42;;
17886;SDS011;9069;52.044;7.472;2023-07-31T07:05:07;6.03;;;2.75;;
17886;SDS011;9069;52.044;7.472;2023-07-31T07:07:34;7.10;;;3.33;;
17886;SDS011;9069;52.044;7.472;2023-07-31T07:10:01;9.60;;;3.20;;
17886;SDS011;9069;52.044;7.472;2023-07-31T07:12:30;7.57;;;2.90;;
17886;SDS011;9069;52.044;7.472;2023-07-31T07:14:57;6.90;;;2.58;;
17886;SDS011;9069;52.044;7.472;2023-07-31T07:17:25;7.28;;;2.70;;
17886;SDS011;9069;52.044;7.472;2023-07-31T07:19:52;5.28;;;2.55;;
17886;SDS011;9069;52.044;7.472;2023-07-31T07:22:19;7.50;;;2.83;;
17886;SDS011;9069;52.044;7.472;2023-07-31T07:24:46;6.60;;;2.55;;
17886;SDS011;9069;52.044;7.472;2023-07-31T07:27:13;8.13;;;2.58;;
17886;SDS011;9069;52.044;7.472;2023-07-31T07:29:39;5.95;;;2.90;;
17886;SDS011;9069;52.044;7.472;2023-07-31T07:32:06;5.20;;;2.45;;
17886;SDS011;9069;52.044;7.472;2023-07-31T07:34:33;4.90;;;2.15;;
17886;SDS011;9069;52.044;7.472;2023-07-31T07:37:00;5.15;;;2.35;;
17886;SDS011;9069;52.044;7.472;2023-07-31T07:39:27;3.05;;;1.80;;
17886;SDS011;9069;52.044;7.472;2023-07-31T07:41:54;3.88;;;1.92;;
17886;SDS011;9069;52.044;7.472;2023-07-31T07:44:20;7.38;;;1.80;;
17886;SDS011;9069;52.044;7.472;2023-07-31T07:46:47;4.82;;;2.03;;
17886;SDS011;9069;52.044;7.472;2023-07-31T07:49:14;2.22;;;1.40;;
17886;SDS011;9069;52.044;7.472;2023-07-31T07:51:41;2.90;;;1.83;;
17886;SDS011;9069;52.044;7.472;2023-07-31T07:54:08;2.60;;;1.65;;
17886;SDS011;9069;52.044;7.472;2023-07-31T07:56:34;2.08;;;1.40;;
17886;SDS011;9069;52.044;7.472;2023-07-31T07:59:03;1.85;;;1.50;;
17886;SDS011;9069;52.044;7.472;2023-07-31T08:01:29;1.75;;;1.30;;
17886;SDS011;9069;52.044;7.472;2023-07-31T08:03:57;1.75;;;1.20;;
17886;SDS011;9069;52.044;7.472;2023-07-31T08:06:24;1.55;;;1.00;;
17886;SDS011;9069;52.044;7.472;2023-07-31T08:08:51;2.00;;;1.30;;
17886;SDS011;9069;52.044;7.472;2023-07-31T08:11:18;1.05;;;0.75;;
17886;SDS011;9069;52.044;7.472;2023-07-31T08:13:45;2.22;;;1.20;;
17886;SDS011;9069;52.044;7.472;2023-07-31T08:16:11;1.20;;;0.90;;
17886;SDS011;9069;52.044;7.472;2023-07-31T08:18:38;3.17;;;1.00;;
17886;SDS011;9069;52.044;7.472;2023-07-31T08:21:07;1.83;;;1.20;;
17886;SDS011;9069;52.044;7.472;2023-07-31T08:23:33;2.15;;;1.17;;
17886;SDS011;9069;52.044;7.472;2023-07-31T08:26:00;1.10;;;0.98;;
17886;SDS011;9069;52.044;7.472;2023-07-31T08:28:27;1.88;;;1.20;;
17886;SDS011;9069;52.044;7.472;2023-07-31T08:30:54;1.23;;;1.13;;
17886;SDS011;9069;52.044;7.472;2023-07-31T08:33:20;1.40;;;1.30;;
17886;SDS011;9069;52.044;7.472;2023-07-31T08:35:47;0.93;;;0.90;;
17886;SDS011;9069;52.044;7.472;2023-07-31T08:38:14;3.25;;;1.15;;
17886;SDS011;9069;52.044;7.472;2023-07-31T08:40:41;1.17;;;1.08;;
17886;SDS011;9069;52.044;7.472;2023-07-31T08:43:08;0.90;;;0.90;;
17886;SDS011;9069;52.044;7.472;2023-07-31T08:45:35;1.13;;;1.02;;
17886;SDS011;9069;52.044;7.472;2023-07-31T08:48:03;1.35;;;1.00;;
17886;SDS011;9069;52.044;7.472;2023-07-31T08:50:30;1.00;;;1.00;;
17886;SDS011;9069;52.044;7.472;2023-07-31T08:52:56;1.15;;;0.82;;
17886;SDS011;9069;52.044;7.472;2023-07-31T08:55:24;1.90;;;1.10;;
17886;SDS011;9069;52.044;7.472;2023-07-31T08:57:51;1.38;;;0.88;;
17886;SDS011;9069;52.044;7.472;2023-07-31T09:00:19;1.13;;;0.90;;
17886;SDS011;9069;52.044;7.472;2023-07-31T09:02:56;1.38;;;1.00;;
17886;SDS011;9069;52.044;7.472;2023-07-31T09:05:28;1.02;;;0.80;;
17886;SDS011;9069;52.044;7.472;2023-07-31T09:07:56;0.80;;;0.80;;
17886;SDS011;9069;52.044;7.472;2023-07-31T09:10:24;1.02;;;0.90;;
17886;SDS011;9069;52.044;7.472;2023-07-31T09:12:51;0.90;;;0.70;;
17886;SDS011;9069;52.044;7.472;2023-07-31T09:15:18;2.72;;;0.98;;
17886;SDS011;9069;52.044;7.472;2023-07-31T09:18:01;0.80;;;0.80;;
17886;SDS011;9069;52.044;7.472;2023-07-31T09:20:29;1.23;;;0.88;;
17886;SDS011;9069;52.044;7.472;2023-07-31T09:23:00;0.77;;;0.75;;
17886;SDS011;9069;52.044;7.472;2023-07-31T09:25:35;1.15;;;1.00;;
17886;SDS011;9069;52.044;7.472;2023-07-31T09:28:04;1.05;;;0.95;;
17886;SDS011;9069;52.044;7.472;2023-07-31T09:30:46;0.95;;;0.95;;
17886;SDS011;9069;52.044;7.472;2023-07-31T09:33:14;0.90;;;0.90;;
17886;SDS011;9069;52.044;7.472;2023-07-31T09:35:41;1.77;;;1.00;;
17886;SDS011;9069;52.044;7.472;2023-07-31T09:38:09;1.55;;;1.17;;
17886;SDS011;9069;52.044;7.472;2023-07-31T09:40:41;2.33;;;0.98;;
17886;SDS011;9069;52.044;7.472;2023-07-31T09:43:12;1.27;;;1.00;;
17886;SDS011;9069;52.044;7.472;2023-07-31T09:45:43;1.10;;;0.98;;
17886;SDS011;9069;52.044;7.472;2023-07-31T09:48:11;0.80;;;0.80;;
17886;SDS011;9069;52.044;7.472;2023-07-31T09:50:43;2.10;;;0.80;;
17886;SDS011;9069;52.044;7.472;2023-07-31T09:53:11;0.88;;;0.73;;
17886;SDS011;9069;52.044;7.472;2023-07-31T09:55:38;1.08;;;0.98;;
17886;SDS011;9069;52.044;7.472;2023-07-31T09:58:11;1.15;;;1.05;;
17886;SDS011;9069;52.044;7.472;2023-07-31T10:00:39;1.40;;;0.90;;
17886;SDS011;9069;52.044;7.472;2023-07-31T10:03:06;1.10;;;0.90;;
17886;SDS011;9069;52.044;7.472;2023-07-31T10:05:36;0.95;;;0.77;;
17886;SDS011;9069;52.044;7.472;2023-07-31T10:08:06;1.05;;;0.90;;
17886;SDS011;9069;52.044;7.472;2023-07-31T10:10:36;1.50;;;1.00;;
17886;SDS011;9069;52.044;7.472;2023-07-31T10:13:07;1.00;;;0.88;;
17886;SDS011;9069;52.044;7.472;2023-07-31T10:15:34;1.10;;;0.98;;
17886;SDS011;9069;52.044;7.472;2023-07-31T10:18:02;0.93;;;0.80;;
17886;SDS011;9069;52.044;7.472;2023-07-31T10:20:32;1.08;;;0.88;;
17886;SDS011;9069;52.044;7.472;2023-07-31T10:22:58;1.58;;;1.00;;
17886;SDS011;9069;52.044;7.472;2023-07-31T10:25:26;1.23;;;0.80;;
17886;SDS011;9069;52.044;7.472;2023-07-31T10:27:53;0.82;;;0.70;;
17886;SDS011;9069;52.044;7.472;2023-07-31T10:30:22;1.60;;;1.00;;
17886;SDS011;9069;52.044;7.472;2023-07-31T10:32:53;1.10;;;0.68;;
17886;SDS011;9069;52.044;7.472;2023-07-31T10:35:20;2.50;;;0.60;;
17886;SDS011;9069;52.044;7.472;2023-07-31T10:37:51;0.80;;;0.77;;
17886;SDS011;9069;52.044;7.472;2023-07-31T10:40:19;1.25;;;0.98;;
17886;SDS011;9069;52.044;7.472;2023-07-31T10:42:52;1.30;;;0.85;;
17886;SDS011;9069;52.044;7.472;2023-07-31T10:48:03;1.90;;;0.90;;
17886;SDS011;9069;52.044;7.472;2023-07-31T10:50:31;1.02;;;0.68;;
17886;SDS011;9069;52.044;7.472;2023-07-31T10:53:03;1.17;;;0.95;;
17886;SDS011;9069;52.044;7.472;2023-07-31T10:58:05;1.67;;;0.90;;
17886;SDS011;9069;52.044;7.472;2023-07-31T11:00:41;0.93;;;0.70;;
17886;SDS011;9069;52.044;7.472;2023-07-31T11:05:47;1.25;;;0.85;;
17886;SDS011;9069;52.044;7.472;2023-07-31T11:08:15;1.15;;;0.90;;
17886;SDS011;9069;52.044;7.472;2023-07-31T11:10:49;1.40;;;1.05;;
17886;SDS011;9069;52.044;7.472;2023-07-31T11:13:18;1.00;;;0.90;;
17886;SDS011;9069;52.044;7.472;2023-07-31T11:15:44;1.33;;;0.75;;
17886;SDS011;9069;52.044;7.472;2023-07-31T11:18:11;0.98;;;0.80;;
17886;SDS011;9069;52.044;7.472;2023-07-31T11:20:38;1.70;;;1.00;;
17886;SDS011;9069;52.044;7.472;2023-07-31T11:23:06;0.70;;;0.70;;
17886;SDS011;9069;52.044;7.472;2023-07-31T11:25:34;1.05;;;0.90;;
17886;SDS011;9069;52.044;7.472;2023-07-31T11:28:05;2.10;;;0.75;;
17886;SDS011;9069;52.044;7.472;2023-07-31T11:30:33;0.93;;;0.80;;
17886;SDS011;9069;52.044;7.472;2023-07-31T11:33:02;1.55;;;0.90;;
17886;SDS011;9069;52.044;7.472;2023-07-31T11:35:31;1.05;;;0.80;;
17886;SDS011;9069;52.044;7.472;2023-07-31T11:37:58;2.03;;;0.90;;
17886;SDS011;9069;52.044;7.472;2023-07-31T11:40:26;1.10;;;1.00;;
17886;SDS011;9069;52.044;7.472;2023-07-31T11:42:58;1.33;;;1.00;;
17886;SDS011;9069;52.044;7.472;2023-07-31T11:45:30;1.52;;;0.85;;
17886;SDS011;9069;52.044;7.472;2023-07-31T11:47:58;1.38;;;1.05;;
17886;SDS011;9069;52.044;7.472;2023-07-31T11:50:26;2.40;;;1.15;;
17886;SDS011;9069;52.044;7.472;2023-07-31T11:52:55;2.20;;;1.00;;
17886;SDS011;9069;52.044;7.472;2023-07-31T11:55:25;1.77;;;1.45;;
17886;SDS011;9069;52.044;7.472;2023-07-31T11:57:52;1.23;;;1.13;;
17886;SDS011;9069;52.044;7.472;2023-07-31T12:00:21;2.45;;;1.65;;
17886;SDS011;9069;52.044;7.472;2023-07-31T12:02:48;2.60;;;1.55;;
17886;SDS011;9069;52.044;7.472;2023-07-31T12:05:16;3.35;;;1.48;;
17886;SDS011;9069;52.044;7.472;2023-07-31T12:07:53;1.80;;;1.60;;
17886;SDS011;9069;52.044;7.472;2023-07-31T12:12:58;3.67;;;2.17;;
17886;SDS011;9069;52.044;7.472;2023-07-31T12:15:45;2.97;;;2.25;;
17886;SDS011;9069;52.044;7.472;2023-07-31T12:18:16;3.35;;;2.33;;
17886;SDS011;9069;52.044;7.472;2023-07-31T12:20:46;3.80;;;2.60;;
17886;SDS011;9069;52.044;7.472;2023-07-31T12:23:35;4.55;;;2.40;;
17886;SDS011;9069;52.044;7.472;2023-07-31T12:28:30;6.25;;;2.67;;
17886;SDS011;9069;52.044;7.472;2023-07-31T12:31:01;5.65;;;2.60;;
17886;SDS011;9069;52.044;7.472;2023-07-31T12:33:32;3.13;;;2.45;;
17886;SDS011;9069;52.044;7.472;2023-07-31T12:36:01;2.83;;;2.17;;
17886;SDS011;9069;52.044;7.472;2023-07-31T12:38:29;3.53;;;2.33;;
17886;SDS011;9069;52.044;7.472;2023-07-31T12:40:57;3.17;;;2.40;;
17886;SDS011;9069;52.044;7.472;2023-07-31T12:43:23;4.50;;;2.03;;
17886;SDS011;9069;52.044;7.472;2023-07-31T12:45:50;2.47;;;2.22;;
17886;SDS011;9069;52.044;7.472;2023-07-31T12:48:17;2.83;;;2.03;;
17886;SDS011;9069;52.044;7.472;2023-07-31T12:50:44;2.58;;;1.85;;
17886;SDS011;9069;52.044;7.472;2023-07-31T12:53:11;2.85;;;1.95;;
17886;SDS011;9069;52.044;7.472;2023-07-31T12:55:38;3.72;;;2.40;;
17886;SDS011;9069;52.044;7.472;2023-07-31T12:58:04;3.28;;;2.15;;
17886;SDS011;9069;52.044;7.472;2023-07-31T13:00:31;3.10;;;1.90;;
17886;SDS011;9069;52.044;7.472;2023-07-31T13:02:59;2.35;;;1.85;;
17886;SDS011;9069;52.044;7.472;2023-07-31T13:05:27;2.63;;;2.10;;
17886;SDS011;9069;52.044;7.472;2023-07-31T13:07:54;3.22;;;1.90;;
17886;SDS011;9069;52.044;7.472;2023-07-31T13:10:22;5.85;;;2.10;;
17886;SDS011;9069;52.044;7.472;2023-07-31T13:12:49;4.88;;;2.08;;
17886;SDS011;9069;52.044;7.472;2023-07-31T13:15:16;2.15;;;1.55;;
17886;SDS011;9069;52.044;7.472;2023-07-31T13:17:43;3.60;;;2.03;;
17886;SDS011;9069;52.044;7.472;2023-07-31T13:20:10;5.18;;;2.30;;
17886;SDS011;9069;52.044;7.472;2023-07-31T13:22:37;3.67;;;2.15;;
17886;SDS011;9069;52.044;7.472;2023-07-31T13:25:04;2.97;;;1.85;;
17886;SDS011;9069;52.044;7.472;2023-07-31T13:27:31;2.90;;;1.70;;
17886;SDS011;9069;52.044;7.472;2023-07-31T13:29:58;1.80;;;1.65;;
17886;SDS011;9069;52.044;7.472;2023-07-31T13:32:24;3.55;;;1.90;;
17886;SDS011;9069;52.044;7.472;2023-07-31T13:34:52;3.05;;;2.03;;
17886;SDS011;9069;52.044;7.472;2023-07-31T13:37:19;4.25;;;1.80;;
17886;SDS011;9069;52.044;7.472;2023-07-31T13:39:45;2.47;;;1.88;;
17886;SDS011;9069;52.044;7.472;2023-07-31T13:42:12;2.72;;;2.15;;
17886;SDS011;9069;52.044;7.472;2023-07-31T13:44:39;4.40;;;2.00;;
17886;SDS011;9069;52.044;7.472;2023-07-31T13:47:06;5.10;;;2.20;;
17886;SDS011;9069;52.044;7.472;2023-07-31T13:49:34;2.28;;;1.80;;
17886;SDS011;9069;52.044;7.472;2023-07-31T13:52:02;4.45;;;2.22;;
17886;SDS011;9069;52.044;7.472;2023-07-31T13:54:29;3.00;;;1.80;;
17886;SDS011;9069;52.044;7.472;2023-07-31T13:56:56;1.90;;;1.60;;
17886;SDS011;9069;52.044;7.472;2023-07-31T13:59:23;3.45;;;1.80;;
17886;SDS011;9069;52.044;7.472;2023-07-31T14:01:50;2.70;;;1.85;;
17886;SDS011;9069;52.044;7.472;2023-07-31T14:04:17;4.43;;;1.77;;
17886;SDS011;9069;52.044;7.472;2023-07-31T14:06:44;4.60;;;2.00;;
17886;SDS011;9069;52.044;7.472;2023-07-31T14:09:10;3.00;;;1.67;;
17886;SDS011;9069;52.044;7.472;2023-07-31T14:11:37;3.05;;;1.70;;
17886;SDS011;9069;52.044;7.472;2023-07-31T14:14:08;3.20;;;1.58;;
17886;SDS011;9069;52.044;7.472;2023-07-31T14:16:36;5.35;;;1.52;;
17886;SDS011;9069;52.044;7.472;2023-07-31T14:19:03;3.65;;;1.67;;
17886;SDS011;9069;52.044;7.472;2023-07-31T14:21:31;2.88;;;1.45;;
17886;SDS011;9069;52.044;7.472;2023-07-31T14:23:57;2.63;;;1.50;;
17886;SDS011;9069;52.044;7.472;2023-07-31T14:26:24;4.28;;;1.73;;
17886;SDS011;9069;52.044;7.472;2023-07-31T14:28:51;2.53;;;1.48;;
17886;SDS011;9069;52.044;7.472;2023-07-31T14:31:17;3.03;;;1.90;;
17886;SDS011;9069;52.044;7.472;2023-07-31T14:33:44;1.88;;;1.55;;
17886;SDS011;9069;52.044;7.472;2023-07-31T14:36:11;1.60;;;1.48;;
17886;SDS011;9069;52.044;7.472;2023-07-31T14:38:38;1.40;;;1.30;;
17886;SDS011;9069;52.044;7.472;2023-07-31T14:41:05;1.88;;;1.60;;
17886;SDS011;9069;52.044;7.472;2023-07-31T14:43:31;3.97;;;1.50;;
17886;SDS011;9069;52.044;7.472;2023-07-31T14:45:58;3.78;;;1.52;;
17886;SDS011;9069;52.044;7.472;2023-07-31T14:48:26;1.73;;;1.33;;
17886;SDS011;9069;52.044;7.472;2023-07-31T14:50:53;4.45;;;1.60;;
17886;SDS011;9069;52.044;7.472;2023-07-31T14:53:20;5.47;;;2.10;;
17886;SDS011;9069;52.044;7.472;2023-07-31T14:55:48;3.17;;;1.75;;
17886;SDS011;9069;52.044;7.472;2023-07-31T14:58:14;2.97;;;1.50;;
17886;SDS011;9069;52.044;7.472;2023-07-31T15:00:43;6.72;;;1.88;;
17886;SDS011;9069;52.044;7.472;2023-07-31T15:03:10;2.08;;;1.45;;
17886;SDS011;9069;52.044;7.472;2023-07-31T15:05:37;1.83;;;1.70;;
17886;SDS011;9069;52.044;7.472;2023-07-31T15:08:04;2.80;;;1.80;;
17886;SDS011;9069;52.044;7.472;2023-07-31T15:10:31;3.03;;;2.15;;
17886;SDS011;9069;52.044;7.472;2023-07-31T15:12:58;2.13;;;1.73;;
17886;SDS011;9069;52.044;7.472;2023-07-31T15:15:25;9.82;;;2.70;;
17886;SDS011;9069;52.044;7.472;2023-07-31T15:17:51;4.88;;;2.03;;
17886;SDS011;9069;52.044;7.472;2023-07-31T15:20:19;3.53;;;2.45;;
17886;SDS011;9069;52.044;7.472;2023-07-31T15:22:46;4.70;;;2.20;;